Time;durP1;ratioP1;P1;durP2;ratioP2;P2;SDS_P1;SDS_P2;PMS_P1;PMS_P2;Temp;Humidity;BMP_temperature;BMP_pressure;BME280_temperature;BME280_humidity;BME280_pressure;Samples;Min_cycle;Max_cycle;Signal;HPM_P1;HPM_P2
2022/01/23 00:01:21;;;;;;;5.70;4.10;;;;;;;4.18;86.86;102385.03;5028038;28;20109;-22
2022/01/23 00:03:47;;;;;;;5.90;4.30;;;;;;;4.18;87.43;102379.81;5025755;28;20041;-22
2022/01/23 00:06:13;;;;;;;5.65;4.32;;;;;;;4.16;86.92;102384.06;5028862;28;20029;-23
2022/01/23 00:08:39;;;;;;;4.28;3.88;;;;;;;4.13;87.33;102360.44;5026274;28;20382;-22
2022/01/23 00:11:04;;;;;;;7.15;4.47;;;;;;;4.15;87.38;102364.91;5025593;28;20036;-22
2022/01/23 00:18:58;;;;;;;4.75;4.22;;;;;;;4.17;86.88;102367.56;5025134;28;20409;-23
2022/01/23 00:21:23;;;;;;;5.20;3.65;;;;;;;4.16;87.43;102377.13;5026980;28;20025;-23
2022/01/23 00:31:42;;;;;;;5.78;4.75;;;;;;;4.15;87.28;102404.06;5026185;28;20032;-22
2022/01/23 00:34:08;;;;;;;7.22;5.22;;;;;;;4.15;87.33;102401.47;5028943;28;20021;-24
2022/01/23 00:36:35;;;;;;;6.30;4.57;;;;;;;4.16;87.54;102411.06;5025967;28;20026;-21
2022/01/23 00:39:01;;;;;;;5.28;4.70;;;;;;;4.15;87.11;102411.00;5026272;28;20108;-22
2022/01/23 00:41:26;;;;;;;6.68;4.82;;;;;;;4.15;86.59;102406.69;5024931;28;20100;-21
2022/01/23 00:43:53;;;;;;;7.82;5.75;;;;;;;4.14;86.93;102407.50;5028381;28;20149;-22
2022/01/23 00:51:23;;;;;;;7.88;6.07;;;;;;;4.14;87.03;102419.66;5028906;28;20025;-22
2022/01/23 00:53:48;;;;;;;8.70;6.72;;;;;;;4.14;87.14;102420.56;5027769;28;20033;-22
2022/01/23 00:56:14;;;;;;;6.43;5.22;;;;;;;4.13;87.65;102402.22;5027024;28;20391;-22
2022/01/23 00:58:40;;;;;;;8.77;6.63;;;;;;;4.13;87.00;102408.31;5027069;28;20064;-26
2022/01/23 01:01:05;;;;;;;9.20;6.35;;;;;;;4.12;87.11;102411.75;5028250;28;20029;-23
2022/01/23 01:03:31;;;;;;;9.35;6.15;;;;;;;4.13;87.17;102405.69;5027534;28;20033;-23
2022/01/23 01:05:56;;;;;;;7.88;6.18;;;;;;;4.13;87.29;102407.44;5027727;28;20029;-21
2022/01/23 01:08:22;;;;;;;10.90;6.45;;;;;;;4.12;87.56;102416.97;5027950;28;20038;-22
2022/01/23 01:11:10;;;;;;;8.73;6.85;;;;;;;4.11;87.15;102420.44;5025978;28;20056;-23
2022/01/23 01:33:05;;;;;;;9.00;6.67;;;;;;;4.09;87.04;102409.00;5025825;28;20053;-21
2022/01/23 01:35:40;;;;;;;9.88;6.70;;;;;;;4.09;87.16;102422.97;5025088;28;20042;-22
2022/01/23 01:38:06;;;;;;;11.40;6.97;;;;;;;4.09;87.18;102422.06;5023154;28;20025;-22
2022/01/23 01:40:32;;;;;;;8.57;6.07;;;;;;;4.08;87.13;102420.28;5027790;28;20083;-22
2022/01/23 01:42:57;;;;;;;7.80;5.95;;;;;;;4.08;86.46;102407.22;5019202;28;20032;-22
2022/01/23 01:45:29;;;;;;;8.30;5.90;;;;;;;4.07;86.79;102408.06;5024276;28;20421;-22
2022/01/23 01:47:55;;;;;;;;;;;;;;;4.08;86.77;102415.06;5023865;28;20059;-24
2022/01/23 01:50:21;;;;;;;7.88;6.05;;;;;;;4.07;86.27;102406.31;5025591;28;19958;-22
2022/01/23 01:52:47;;;;;;;7.28;6.05;;;;;;;4.05;86.38;102410.59;5024952;28;20037;-25
2022/01/23 01:55:20;;;;;;;7.22;6.38;;;;;;;4.07;86.11;102418.50;5024337;28;20091;-21
2022/01/23 01:57:54;;;;;;;9.10;6.65;;;;;;;4.05;86.78;102420.13;5027788;28;20393;-22
2022/01/23 02:00:46;;;;;;;9.65;7.03;;;;;;;4.05;86.85;102420.13;5026269;28;20473;-22
2022/01/23 02:08:32;;;;;;;9.30;6.45;;;;;;;4.02;86.20;102409.53;5023542;28;20029;-22
2022/01/23 02:11:08;;;;;;;10.52;7.38;;;;;;;4.01;86.26;102412.97;5025104;28;20045;-21
2022/01/23 02:13:48;;;;;;;9.70;7.13;;;;;;;4.00;86.26;102421.66;5026586;28;20056;-23
2022/01/23 02:56:39;;;;;;;10.23;7.13;;;;;;;3.76;86.34;102419.69;5024854;28;20037;-21
2022/01/23 02:59:19;;;;;;;11.57;7.90;;;;;;;3.74;86.33;102409.16;5024429;28;20025;-22
2022/01/23 03:04:37;;;;;;;10.98;7.80;;;;;;;3.73;86.08;102417.81;5019179;28;20385;-21
2022/01/23 03:28:50;;;;;;;11.68;8.77;;;;;;;3.64;86.59;102410.44;5021430;28;20044;-22
2022/01/23 03:31:29;;;;;;;12.88;8.20;;;;;;;3.61;85.86;102399.88;5025728;28;20037;-22
2022/01/23 03:33:55;;;;;;;10.27;7.68;;;;;;;3.61;86.13;102407.69;5019722;28;20018;-22
2022/01/23 03:36:20;;;;;;;12.55;8.18;;;;;;;3.60;86.26;102405.88;5023956;28;20060;-22
2022/01/23 03:38:46;;;;;;;12.38;8.73;;;;;;;3.60;85.81;102405.88;5026339;28;20123;-22
2022/01/23 03:41:12;;;;;;;10.43;7.55;;;;;;;3.60;86.14;102408.50;5028390;28;20064;-22
2022/01/23 03:43:39;;;;;;;11.02;8.23;;;;;;;3.60;85.93;102418.94;5027815;28;20116;-22
2022/01/23 03:51:19;;;;;;;11.18;8.82;;;;;;;3.57;86.24;102419.69;5027010;28;20029;-23
2022/01/23 03:53:45;;;;;;;12.73;8.77;;;;;;;3.56;86.43;102435.25;5028051;28;21308;-22
2022/01/23 03:56:11;;;;;;;10.77;7.90;;;;;;;3.55;86.33;102433.47;5027432;28;21016;-21
2022/01/23 03:58:37;;;;;;;11.07;7.93;;;;;;;3.55;86.76;102429.16;5018254;28;20710;-25
2022/01/23 04:01:03;;;;;;;10.73;7.53;;;;;;;3.54;86.58;102427.34;5025741;28;20505;-23
2022/01/23 04:03:29;;;;;;;14.70;8.68;;;;;;;3.56;86.63;102430.03;5027048;28;20021;-25
2022/01/23 04:05:55;;;;;;;11.05;7.88;;;;;;;3.54;86.53;102424.75;5028755;28;20520;-22
2022/01/23 04:08:21;;;;;;;10.65;7.97;;;;;;;3.54;86.74;102426.47;5027594;28;20025;-22
2022/01/23 04:10:46;;;;;;;9.38;7.13;;;;;;;3.54;86.68;102431.69;5028008;28;20031;-24
2022/01/23 04:13:24;;;;;;;10.73;7.07;;;;;;;3.53;86.32;102428.19;5020488;28;20511;-23
2022/01/23 04:31:39;;;;;;;10.68;7.72;;;;;;;3.53;87.14;102419.47;5027555;28;20059;-22
2022/01/23 04:45:55;;;;;;;9.27;6.43;;;;;;;3.52;86.26;102422.88;5004660;28;20112;-23
2022/01/23 05:04:24;;;;;;;10.25;7.43;;;;;;;3.51;86.62;102452.41;5024315;28;20021;-24
2022/01/23 05:07:01;;;;;;;11.38;8.05;;;;;;;3.50;87.04;102456.72;5023342;28;20025;-22
2022/01/23 05:09:28;;;;;;;13.63;8.70;;;;;;;3.50;86.86;102466.28;5023130;28;20086;-24
2022/01/23 05:12:05;;;;;;;11.57;7.68;;;;;;;3.49;87.26;102464.47;5018200;28;20033;-22
2022/01/23 05:14:38;;;;;;;12.23;8.60;;;;;;;3.51;86.87;102470.69;5025547;28;20431;-23
2022/01/23 05:17:06;;;;;;;10.80;8.32;;;;;;;3.51;86.91;102475.91;5021753;28;20029;-22
2022/01/23 05:19:32;;;;;;;11.45;8.05;;;;;;;3.50;87.01;102476.72;5025808;28;20481;-22
2022/01/23 05:24:41;;;;;;;11.65;8.02;;;;;;;3.51;87.20;102481.13;5023001;28;20505;-24
2022/01/23 05:27:10;;;;;;;12.18;8.70;;;;;;;3.52;87.18;102482.91;5023631;28;20124;-23
2022/01/23 05:29:36;;;;;;;13.40;9.13;;;;;;;3.51;86.77;102479.41;5024146;28;20025;-22
2022/01/23 05:32:03;;;;;;;11.98;8.50;;;;;;;3.51;86.76;102486.34;5021087;28;20022;-22
2022/01/23 05:34:29;;;;;;;11.15;7.97;;;;;;;3.52;86.58;102485.50;5023767;28;20241;-22
2022/01/23 05:36:54;;;;;;;12.85;8.30;;;;;;;3.51;86.93;102484.63;5020608;28;20032;-24
2022/01/23 05:39:21;;;;;;;11.75;7.97;;;;;;;3.52;86.85;102490.72;5019836;28;20029;-22
2022/01/23 05:41:52;;;;;;;11.65;8.50;;;;;;;3.52;87.01;102485.50;5019755;28;20103;-22
2022/01/23 05:44:19;;;;;;;13.60;9.13;;;;;;;3.51;86.91;102482.03;5014419;28;20029;-23
2022/01/23 05:46:44;;;;;;;13.55;9.23;;;;;;;3.53;86.99;102489.94;5016725;28;20444;-22
2022/01/23 05:49:10;;;;;;;14.23;9.43;;;;;;;3.53;86.85;102484.72;5019682;28;20112;-24
2022/01/23 05:51:36;;;;;;;13.98;8.68;;;;;;;3.52;86.21;102488.13;5017499;28;20091;-21
2022/01/23 05:54:02;;;;;;;12.95;9.05;;;;;;;3.52;86.28;102490.72;5018623;28;20022;-22
2022/01/23 05:56:27;;;;;;;13.80;9.18;;;;;;;3.52;86.70;102490.72;5022372;28;20398;-23
2022/01/23 05:58:54;;;;;;;13.77;8.98;;;;;;;3.52;86.31;102491.63;5020151;28;20075;-22
2022/01/23 06:01:20;;;;;;;13.38;8.82;;;;;;;3.52;86.51;102498.56;5020881;28;20026;-22
2022/01/23 06:03:45;;;;;;;13.35;8.68;;;;;;;3.53;86.34;102500.38;5025159;28;20070;-22
2022/01/23 06:06:11;;;;;;;13.82;8.95;;;;;;;3.53;86.69;102508.19;5020365;28;20026;-23
2022/01/23 06:08:36;;;;;;;12.05;8.68;;;;;;;3.52;86.59;102503.75;5024028;28;20031;-22
2022/01/23 06:11:02;;;;;;;14.43;9.48;;;;;;;3.52;86.49;102507.28;5024253;28;20034;-23
2022/01/23 06:13:28;;;;;;;13.75;9.23;;;;;;;3.53;86.35;102502.97;5019611;28;20033;-21
2022/01/23 06:15:54;;;;;;;11.98;8.57;;;;;;;3.54;86.75;102504.75;5019067;28;20069;-22
2022/01/23 06:18:20;;;;;;;13.70;9.40;;;;;;;3.53;86.78;102502.97;5020976;28;20033;-22
2022/01/23 06:20:46;;;;;;;15.10;9.73;;;;;;;3.52;86.39;102502.06;5022222;28;20378;-22
2022/01/23 06:23:13;;;;;;;15.07;10.02;;;;;;;3.53;87.04;102498.63;5024585;28;20021;-23
2022/01/23 06:25:48;;;;;;;14.48;9.65;;;;;;;3.53;86.75;102502.97;5020998;28;20017;-26
2022/01/23 06:28:43;;;;;;;15.90;10.88;;;;;;;3.52;86.67;102507.28;5021989;28;20021;-23
2022/01/23 06:31:08;;;;;;;22.33;11.57;;;;;;;3.50;87.33;102506.28;5024431;28;20053;-22
2022/01/23 06:33:35;;;;;;;17.70;11.45;;;;;;;3.53;86.86;102508.19;5023406;28;20021;-22
2022/01/23 06:36:02;;;;;;;17.33;11.13;;;;;;;3.51;86.76;102502.00;5019398;28;20029;-22
2022/01/23 06:38:28;;;;;;;14.77;10.00;;;;;;;3.51;86.89;102505.50;5001210;28;20462;-22
2022/01/23 06:40:53;;;;;;;17.35;11.35;;;;;;;3.51;86.59;102515.94;5023070;28;20029;-22
2022/01/23 06:43:19;;;;;;;14.68;10.93;;;;;;;3.52;86.47;102516.81;5025893;28;20527;-22
2022/01/23 06:45:45;;;;;;;15.57;11.23;;;;;;;3.52;86.60;102522.03;5026083;28;20036;-22
2022/01/23 06:48:10;;;;;;;13.90;9.82;;;;;;;3.50;86.57;102518.47;5020467;28;20026;-26
2022/01/23 06:50:36;;;;;;;13.80;9.63;;;;;;;3.50;86.56;102514.13;5023081;28;20029;-22
2022/01/23 06:53:02;;;;;;;15.52;9.50;;;;;;;3.51;86.75;102515.94;5025137;28;20044;-25
2022/01/23 06:55:27;;;;;;;17.33;10.73;;;;;;;3.52;86.46;102522.03;5027042;28;20109;-25
2022/01/23 06:57:53;;;;;;;14.73;9.98;;;;;;;3.51;86.53;102525.47;5024495;28;20057;-23
2022/01/23 07:00:18;;;;;;;16.58;10.57;;;;;;;3.51;86.61;102528.06;5023280;28;20502;-22
2022/01/23 07:02:44;;;;;;;17.77;10.20;;;;;;;3.48;86.69;102528.81;5028833;28;20079;-27
2022/01/23 07:05:09;;;;;;;15.82;10.90;;;;;;;3.50;86.77;102536.72;5027857;28;20045;-22
2022/01/23 07:07:35;;;;;;;19.30;11.27;;;;;;;3.49;86.40;102537.53;5027234;28;20040;-26
2022/01/23 07:10:01;;;;;;;17.13;11.02;;;;;;;3.50;86.60;102539.34;5020175;28;20107;-21
2022/01/23 07:12:26;;;;;;;13.02;8.82;;;;;;;3.51;86.47;102542.03;5023674;28;20036;-24
2022/01/23 07:14:52;;;;;;;14.10;10.32;;;;;;;3.50;86.61;102545.44;5022212;28;20021;-22
2022/01/23 07:17:17;;;;;;;17.67;9.55;;;;;;;3.51;86.79;102551.56;5024944;28;20033;-25
2022/01/23 07:19:43;;;;;;;15.88;10.63;;;;;;;3.51;87.04;102543.72;5028404;28;20681;-22
2022/01/23 07:22:08;;;;;;;15.38;9.90;;;;;;;3.51;87.23;102551.56;5026600;28;20030;-22
2022/01/23 07:24:34;;;;;;;15.70;10.38;;;;;;;3.50;87.62;102544.56;5027863;28;20021;-22
2022/01/23 07:27:01;;;;;;;16.30;10.43;;;;;;;3.50;87.85;102555.00;5026919;28;20369;-22
2022/01/23 07:29:27;;;;;;;15.10;9.77;;;;;;;3.51;87.14;102556.78;5028397;28;20503;-23
2022/01/23 07:31:59;;;;;;;14.43;9.27;;;;;;;3.49;87.46;102551.47;5023627;28;20060;-22
2022/01/23 07:34:26;;;;;;;13.25;8.80;;;;;;;3.49;87.05;102553.19;5028386;28;20057;-21
2022/01/23 07:36:51;;;;;;;14.43;9.63;;;;;;;3.51;86.66;102564.59;5028073;28;20088;-22
2022/01/23 07:39:17;;;;;;;12.60;8.85;;;;;;;3.51;87.16;102564.59;5024143;28;20493;-21
2022/01/23 07:41:42;;;;;;;12.98;9.18;;;;;;;3.51;86.76;102562.00;5025792;28;20037;-22
2022/01/23 07:44:08;;;;;;;13.38;9.00;;;;;;;3.52;87.63;102574.22;5025814;28;20033;-22
2022/01/23 07:46:33;;;;;;;11.82;8.52;;;;;;;3.52;87.10;102579.44;5027352;28;20014;-22
2022/01/23 07:48:59;;;;;;;13.30;8.40;;;;;;;3.52;86.78;102572.50;5026014;28;20478;-22
2022/01/23 07:51:25;;;;;;;13.02;8.27;;;;;;;3.52;87.06;102580.34;5026573;28;20094;-23
2022/01/23 07:53:51;;;;;;;12.05;7.65;;;;;;;3.53;87.45;102583.84;5027761;28;20104;-22
2022/01/23 07:56:17;;;;;;;11.60;8.85;;;;;;;3.54;87.20;102590.84;5026058;28;20033;-22
2022/01/23 07:58:42;;;;;;;12.40;7.80;;;;;;;3.53;87.24;102583.84;5023232;28;20550;-22
2022/01/23 08:01:08;;;;;;;11.00;7.57;;;;;;;3.54;87.13;102589.13;5025104;28;20033;-22
2022/01/23 08:03:34;;;;;;;11.45;7.53;;;;;;;3.54;87.21;102583.03;5025126;28;20129;-23
2022/01/23 08:06:00;;;;;;;9.45;7.07;;;;;;;3.55;87.32;102592.63;5025481;28;20033;-22
2022/01/23 08:08:26;;;;;;;10.35;7.05;;;;;;;3.56;87.44;102582.28;5027070;28;20033;-22
2022/01/23 08:10:52;;;;;;;10.25;6.90;;;;;;;3.56;87.62;102594.44;5025271;28;20037;-28
2022/01/23 08:13:19;;;;;;;8.55;6.38;;;;;;;3.56;87.18;102589.22;5027756;28;20041;-26
2022/01/23 08:15:44;;;;;;;8.85;5.97;;;;;;;3.56;87.59;102592.72;5028529;28;20022;-22
2022/01/23 08:18:10;;;;;;;8.88;6.25;;;;;;;3.57;87.28;102598.84;5025624;28;20497;-22
2022/01/23 08:20:36;;;;;;;6.82;5.32;;;;;;;3.57;87.46;102606.69;5025149;28;20134;-27
2022/01/23 08:23:03;;;;;;;7.65;5.28;;;;;;;3.59;87.90;102607.63;5025120;28;20059;-22
2022/01/23 08:25:29;;;;;;;8.80;6.32;;;;;;;3.59;87.37;102602.41;5025242;28;20106;-22
2022/01/23 08:27:55;;;;;;;7.10;5.30;;;;;;;3.59;87.42;102602.41;5023209;28;20028;-21
2022/01/23 08:30:22;;;;;;;8.40;6.35;;;;;;;3.58;87.51;102604.16;5024106;28;20037;-22
2022/01/23 08:32:48;;;;;;;7.80;4.93;;;;;;;3.60;87.52;102609.41;5023953;28;20486;-22
2022/01/23 08:35:14;;;;;;;6.85;4.55;;;;;;;3.59;88.34;102610.25;5023230;28;20037;-22
2022/01/23 08:37:40;;;;;;;5.53;4.75;;;;;;;3.61;87.64;102606.00;5023473;28;20041;-22
2022/01/23 08:40:17;;;;;;;6.47;4.90;;;;;;;3.61;87.21;102611.22;5024609;28;20108;-22
2022/01/23 08:42:42;;;;;;;6.78;4.85;;;;;;;3.62;87.05;102605.19;5023572;28;20032;-22
2022/01/23 08:45:08;;;;;;;6.47;5.00;;;;;;;3.63;86.88;102606.97;5023039;28;20049;-22
2022/01/23 08:47:34;;;;;;;5.38;3.90;;;;;;;3.63;87.43;102604.34;5024861;28;20032;-22
2022/01/23 08:49:59;;;;;;;5.03;4.18;;;;;;;3.65;87.04;102602.75;5020346;28;20167;-22
2022/01/23 08:52:25;;;;;;;5.70;3.83;;;;;;;3.65;87.87;102602.75;5020383;28;20029;-27
2022/01/23 08:54:56;;;;;;;4.65;3.88;;;;;;;3.66;88.49;102599.31;5023283;28;20516;-22
2022/01/23 08:57:22;;;;;;;5.60;4.30;;;;;;;3.65;87.28;102607.97;5022180;28;20366;-22
2022/01/23 08:59:49;;;;;;;4.97;3.75;;;;;;;3.67;87.60;102608.91;5020443;28;20029;-22
2022/01/23 09:02:15;;;;;;;4.55;3.55;;;;;;;3.68;86.95;102602.00;5018274;28;20036;-22
2022/01/23 09:04:42;;;;;;;5.45;4.20;;;;;;;3.68;88.74;102602.91;5019136;28;20048;-22
2022/01/23 09:07:08;;;;;;;4.95;4.10;;;;;;;3.70;88.02;102606.47;5022967;28;20040;-22
2022/01/23 09:09:37;;;;;;;4.63;3.45;;;;;;;3.71;87.60;102610.84;5021713;28;20029;-22
2022/01/23 09:12:41;;;;;;;4.80;3.42;;;;;;;3.75;87.63;102616.25;5018751;28;20021;-22
2022/01/23 09:14:50;;;;;;;4.65;3.38;;;;;;;3.74;88.13;102612.75;5020038;28;20059;-23
2022/01/23 09:17:16;;;;;;;3.28;2.97;;;;;;;3.75;87.75;102603.19;5019708;28;20018;-21
2022/01/23 09:19:45;;;;;;;5.28;3.15;;;;;;;3.77;88.02;102610.28;5021463;28;20041;-22
2022/01/23 09:22:11;;;;;;;7.65;3.67;;;;;;;3.76;89.10;102600.66;5019439;28;20079;-22
2022/01/23 09:24:36;;;;;;;4.20;2.90;;;;;;;3.78;88.38;102609.47;5020566;28;20037;-23
2022/01/23 09:27:05;;;;;;;4.15;3.38;;;;;;;3.81;89.37;102612.22;5020532;28;20029;-22
2022/01/23 09:29:37;;;;;;;5.75;3.33;;;;;;;3.81;89.17;102604.38;5020875;28;20053;-22
2022/01/23 09:32:09;;;;;;;4.28;3.00;;;;;;;3.82;88.50;102610.50;5020902;28;20022;-23
2022/01/23 09:34:36;;;;;;;2.92;2.63;;;;;;;3.84;89.62;102608.88;5018717;28;20022;-23
2022/01/23 09:37:08;;;;;;;3.17;2.92;;;;;;;3.84;90.08;102608.88;5021939;28;20029;-21
2022/01/23 09:39:34;;;;;;;;;;;;;;;3.88;89.06;102603.00;5022889;28;20212;-22
2022/01/23 09:42:07;;;;;;;5.80;3.05;;;;;;;3.88;89.74;102604.69;5022350;28;19922;-24
2022/01/23 09:44:53;;;;;;;4.32;2.88;;;;;;;3.89;88.84;102607.38;5023921;28;20025;-22
2022/01/23 09:47:20;;;;;;;4.07;2.88;;;;;;;3.91;89.23;102612.69;5020522;28;20029;-24
2022/01/23 09:49:46;;;;;;;5.70;4.20;;;;;;;3.92;89.23;102612.78;5017250;28;20026;-22
2022/01/23 09:52:14;;;;;;;5.75;3.25;;;;;;;3.93;89.60;102616.25;5016157;28;20033;-22
2022/01/23 09:54:42;;;;;;;3.15;2.63;;;;;;;3.95;89.53;102617.25;5019948;28;20492;-23
2022/01/23 09:57:09;;;;;;;4.45;3.00;;;;;;;3.97;89.84;102624.34;5017426;28;20045;-21
2022/01/23 09:59:34;;;;;;;3.92;3.30;;;;;;;3.97;89.47;102613.88;5022788;28;20032;-22
2022/01/23 10:02:03;;;;;;;4.00;3.15;;;;;;;3.98;90.25;102620.00;5020153;28;20397;-24
2022/01/23 10:04:29;;;;;;;4.18;3.72;;;;;;;4.01;90.16;102629.72;5021206;28;20025;-24
2022/01/23 10:06:55;;;;;;;4.78;3.10;;;;;;;4.02;90.04;102644.56;5021187;28;21102;-22
2022/01/23 10:09:26;;;;;;;4.53;3.22;;;;;;;4.04;90.06;102648.16;5021108;28;20500;-22
2022/01/23 10:11:52;;;;;;;6.25;3.65;;;;;;;4.05;90.11;102644.72;5017156;28;20045;-21
2022/01/23 10:14:18;;;;;;;3.85;3.47;;;;;;;4.07;90.08;102643.09;5019311;28;20482;-27
2022/01/23 10:16:45;;;;;;;3.35;3.03;;;;;;;4.07;89.21;102643.97;5019563;28;20033;-22
2022/01/23 10:19:11;;;;;;;5.38;3.30;;;;;;;4.11;89.06;102650.25;5017219;28;20433;-23
2022/01/23 10:21:38;;;;;;;4.65;3.08;;;;;;;4.11;88.99;102656.34;5016480;28;20021;-22
2022/01/23 10:24:05;;;;;;;4.63;4.10;;;;;;;4.12;89.32;102649.41;5016175;28;20465;-22
2022/01/23 10:26:38;;;;;;;3.45;2.92;;;;;;;4.12;88.56;102646.81;5017917;28;20018;-23
2022/01/23 10:29:26;;;;;;;4.43;3.97;;;;;;;4.15;89.64;102641.75;5024632;28;20099;-23
2022/01/23 10:32:07;;;;;;;4.30;3.90;;;;;;;4.17;89.35;102641.81;5020445;28;20040;-21
2022/01/23 10:34:51;;;;;;;4.53;3.50;;;;;;;4.20;89.36;102644.59;5015742;28;20022;-23
2022/01/23 10:37:27;;;;;;;3.92;3.30;;;;;;;4.21;89.44;102647.25;5022820;28;20032;-21
2022/01/23 10:39:53;;;;;;;4.72;3.80;;;;;;;4.21;88.37;102652.47;5021372;28;20129;-22
2022/01/23 10:48:11;;;;;;;5.38;4.72;;;;;;;4.32;89.89;102649.50;5019404;28;20037;-22
2022/01/23 10:50:37;;;;;;;6.90;4.47;;;;;;;4.32;89.08;102654.72;5015991;28;21643;-23
2022/01/23 10:53:03;;;;;;;5.95;4.80;;;;;;;4.36;89.41;102651.44;5017032;28;20037;-21
2022/01/23 10:55:33;;;;;;;5.32;4.32;;;;;;;4.38;89.66;102643.69;5013340;28;20148;-22
2022/01/23 10:58:02;;;;;;;6.22;5.20;;;;;;;4.40;89.58;102637.69;5018737;28;20543;-24
2022/01/23 11:00:35;;;;;;;4.88;4.15;;;;;;;4.41;89.67;102644.75;5022865;28;20397;-22
2022/01/23 11:03:16;;;;;;;6.32;4.72;;;;;;;4.46;89.91;102640.63;5023908;28;20525;-21
2022/01/23 11:05:42;;;;;;;5.57;4.63;;;;;;;4.45;89.86;102644.06;5022768;28;20083;-21
2022/01/23 11:08:27;;;;;;;5.75;4.85;;;;;;;4.51;89.96;102651.28;5020701;28;20025;-23
2022/01/23 11:10:54;;;;;;;5.40;4.43;;;;;;;4.53;89.28;102643.53;5018269;28;20123;-22
2022/01/23 11:19:24;;;;;;;6.05;4.75;;;;;;;4.59;89.18;102621.19;5021128;28;20043;-23
2022/01/23 11:21:52;;;;;;;5.63;5.03;;;;;;;4.65;89.35;102624.91;5018994;28;20044;-23
2022/01/23 11:24:19;;;;;;;6.60;5.18;;;;;;;4.68;89.48;102620.72;5019488;28;20072;-24
2022/01/23 11:26:45;;;;;;;6.28;5.55;;;;;;;4.71;89.57;102620.84;5025969;28;20033;-22
2022/01/23 11:29:12;;;;;;;8.07;5.65;;;;;;;4.72;89.94;102624.38;5028864;28;20090;-22
2022/01/23 11:31:40;;;;;;;8.55;6.07;;;;;;;4.75;90.52;102611.44;5023413;28;20030;-22
2022/01/23 11:34:09;;;;;;;7.88;6.35;;;;;;;4.78;89.94;102610.69;5025578;28;20861;-22
2022/01/23 11:36:35;;;;;;;7.82;5.72;;;;;;;4.80;89.68;102609.06;5024574;28;20044;-22
2022/01/23 11:39:12;;;;;;;6.47;5.38;;;;;;;4.84;90.44;102608.38;5026556;28;20021;-22
2022/01/23 11:51:04;;;;;;;6.95;5.15;;;;;;;4.98;90.21;102606.38;5028540;28;20082;-22
2022/01/23 11:56:35;;;;;;;6.80;5.20;;;;;;;5.03;89.51;102609.22;5027973;28;20052;-22
2022/01/23 11:59:10;;;;;;;6.05;5.03;;;;;;;5.04;89.45;102611.00;5024950;28;20490;-23
2022/01/23 12:01:39;;;;;;;5.50;4.63;;;;;;;5.07;89.97;102611.13;5026449;28;20041;-22
2022/01/23 12:04:08;;;;;;;5.85;5.10;;;;;;;5.08;89.23;102602.47;5020593;28;20029;-22
2022/01/23 12:06:39;;;;;;;6.78;5.55;;;;;;;5.09;89.35;102601.63;5022206;28;20553;-22
2022/01/23 12:09:11;;;;;;;6.15;5.30;;;;;;;5.10;90.08;102596.47;5020535;28;20109;-22
2022/01/23 12:16:59;;;;;;;5.70;4.88;;;;;;;5.18;89.64;102586.34;5015605;28;20742;-23
2022/01/23 12:19:27;;;;;;;7.10;5.15;;;;;;;5.18;89.37;102580.22;5020924;28;20113;-23
2022/01/23 12:21:55;;;;;;;6.82;5.05;;;;;;;5.19;89.11;102580.28;5019502;28;20048;-23
2022/01/23 12:24:24;;;;;;;5.93;5.32;;;;;;;5.19;89.17;102575.06;5020055;28;20532;-23
2022/01/23 12:26:52;;;;;;;7.47;5.15;;;;;;;5.23;88.46;102576.06;5017734;28;20491;-23
2022/01/23 12:29:27;;;;;;;6.88;5.47;;;;;;;5.24;89.32;102581.38;5018755;28;20037;-24
2022/01/23 12:32:19;;;;;;;6.78;5.20;;;;;;;5.25;89.16;102580.56;5019562;28;20025;-23
2022/01/23 12:34:50;;;;;;;7.32;5.22;;;;;;;5.28;89.64;102591.97;5018478;28;20032;-23
2022/01/23 12:37:16;;;;;;;6.57;5.60;;;;;;;5.29;89.29;102591.13;5019780;28;20033;-23
2022/01/23 12:39:42;;;;;;;6.53;5.10;;;;;;;5.29;89.66;102580.66;5021363;28;20034;-23
2022/01/23 12:42:08;;;;;;;8.10;5.55;;;;;;;5.32;89.45;102591.28;5018128;28;21116;-23
2022/01/23 12:44:38;;;;;;;6.32;4.78;;;;;;;5.32;88.92;102586.03;5021625;28;20025;-23
2022/01/23 12:47:24;;;;;;;5.33;4.63;;;;;;;5.34;89.64;102592.25;5018059;28;20029;-23
2022/01/23 12:49:52;;;;;;;6.45;5.38;;;;;;;5.34;89.36;102584.41;5017651;28;20292;-23
2022/01/23 12:52:20;;;;;;;7.10;5.22;;;;;;;5.36;89.86;102593.19;5018411;28;20025;-24
2022/01/23 12:54:51;;;;;;;6.55;5.13;;;;;;;5.38;90.00;102591.56;5019461;28;20022;-23
2022/01/23 12:57:18;;;;;;;;;;;;;;;5.39;89.80;102593.34;5020211;28;20032;-23
2022/01/23 12:59:52;;;;;;;6.85;5.20;;;;;;;5.41;90.21;102589.09;5024099;28;19922;-23
2022/01/23 13:02:19;;;;;;;6.13;5.38;;;;;;;5.42;89.67;102588.25;5022753;28;20041;-23
2022/01/23 13:04:50;;;;;;;5.60;4.43;;;;;;;5.43;89.74;102583.91;5023886;28;20082;-23
2022/01/23 13:07:38;;;;;;;6.07;4.82;;;;;;;5.45;89.57;102585.75;5019256;28;20603;-23
2022/01/23 13:15:43;;;;;;;7.40;5.50;;;;;;;5.48;88.48;102588.53;5022313;28;20524;-23
2022/01/23 13:32:12;;;;;;;5.28;4.65;;;;;;;5.58;89.41;102591.50;5023253;28;20083;-23
2022/01/23 13:34:42;;;;;;;5.05;4.55;;;;;;;5.58;90.03;102588.91;5022276;28;20049;-23
2022/01/23 13:37:16;;;;;;;3.95;3.53;;;;;;;5.59;89.06;102590.69;5018949;28;20029;-23
2022/01/23 13:39:55;;;;;;;4.57;4.10;;;;;;;5.59;88.69;102586.34;5019994;28;20026;-23
2022/01/23 13:54:02;;;;;;;6.13;5.53;;;;;;;5.65;89.66;102581.38;5019821;28;21283;-23
2022/01/23 14:02:24;;;;;;;6.30;5.53;;;;;;;5.67;90.12;102596.25;5010072;28;20128;-23
2022/01/23 14:05:11;;;;;;;6.85;5.82;;;;;;;5.68;89.65;102588.47;5017126;28;20240;-23
2022/01/23 14:07:39;;;;;;;5.80;5.13;;;;;;;5.69;89.89;102581.47;5015839;28;20595;-23
2022/01/23 14:10:15;;;;;;;7.30;5.68;;;;;;;5.69;89.91;102587.63;5017346;28;20041;-23
2022/01/23 14:12:42;;;;;;;6.40;5.50;;;;;;;5.70;89.63;102576.31;5015296;28;20476;-24
2022/01/23 14:15:16;;;;;;;5.75;5.13;;;;;;;5.68;89.27;102585.84;5014221;28;20862;-23
2022/01/23 14:17:43;;;;;;;5.15;4.50;;;;;;;5.70;89.26;102589.41;5013379;28;20029;-24
2022/01/23 14:20:14;;;;;;;5.65;4.70;;;;;;;5.70;89.34;102584.16;5012385;28;20506;-24
2022/01/23 14:22:42;;;;;;;5.93;4.80;;;;;;;5.71;89.11;102585.06;5015113;28;20041;-24
2022/01/23 14:25:21;;;;;;;6.55;5.18;;;;;;;5.70;88.08;102581.56;5016731;28;20029;-24
2022/01/23 14:28:00;;;;;;;5.70;4.78;;;;;;;5.70;88.29;102573.69;5020075;28;20034;-24
2022/01/23 14:30:28;;;;;;;5.28;4.50;;;;;;;5.71;88.22;102587.69;5013355;28;20029;-24
2022/01/23 14:32:55;;;;;;;5.15;4.47;;;;;;;5.72;87.74;102582.53;5020450;28;20036;-24
2022/01/23 14:35:27;;;;;;;5.10;4.60;;;;;;;5.72;88.06;102590.38;5015460;28;20386;-24
2022/01/23 14:37:53;;;;;;;4.93;4.43;;;;;;;5.70;88.13;102588.53;5017260;28;20036;-23
2022/01/23 14:40:27;;;;;;;5.55;4.13;;;;;;;5.75;88.71;102592.22;5021780;28;20108;-23
2022/01/23 14:43:12;;;;;;;4.75;4.30;;;;;;;5.76;89.23;102591.38;5016804;28;20040;-23
2022/01/23 14:45:41;;;;;;;4.90;4.40;;;;;;;5.75;89.87;102598.38;4993351;28;20065;-23
2022/01/23 14:48:09;;;;;;;4.78;4.28;;;;;;;5.75;89.57;102597.47;5013884;28;20040;-23
2022/01/23 14:50:39;;;;;;;7.75;5.10;;;;;;;5.75;90.04;102598.38;5014765;28;20137;-23
2022/01/23 14:53:18;;;;;;;7.13;4.20;;;;;;;5.76;89.93;102596.63;5013649;28;20033;-23
2022/01/23 14:55:47;;;;;;;6.25;4.40;;;;;;;5.73;89.98;102597.41;5015711;28;20056;-23
2022/01/23 14:58:14;;;;;;;4.82;4.22;;;;;;;5.74;90.13;102601.78;5015263;28;20036;-23
2022/01/23 15:00:40;;;;;;;7.97;4.53;;;;;;;5.71;90.09;102593.84;5017414;28;20033;-23
2022/01/23 15:03:06;;;;;;;6.38;4.70;;;;;;;5.74;89.75;102607.03;5019474;28;20029;-23
2022/01/23 15:05:37;;;;;;;4.72;4.22;;;;;;;5.73;90.40;102597.41;5020225;28;20060;-23
2022/01/23 15:08:07;;;;;;;6.00;4.55;;;;;;;5.72;90.28;102598.22;5013660;28;20030;-23
2022/01/23 15:10:33;;;;;;;5.45;4.57;;;;;;;5.74;90.25;102596.56;5019255;28;20100;-23
2022/01/23 15:12:58;;;;;;;5.50;4.25;;;;;;;5.71;90.01;102596.47;5018901;28;20025;-23
2022/01/23 15:15:24;;;;;;;7.72;4.63;;;;;;;5.71;88.82;102614.78;5017264;28;20526;-23
2022/01/23 15:17:50;;;;;;;6.57;4.55;;;;;;;5.71;88.96;102612.16;5020183;28;20041;-23
2022/01/23 15:20:17;;;;;;;5.78;5.07;;;;;;;5.72;88.73;102613.94;5020081;28;20398;-23
2022/01/23 15:22:43;;;;;;;6.75;5.38;;;;;;;5.70;89.32;102620.81;5017198;28;20041;-23
2022/01/23 15:25:11;;;;;;;6.38;5.03;;;;;;;5.73;89.48;102620.97;5014662;28;20041;-23